createdAt,value
2023-01-19T00:00:05.936Z,11.55
2023-01-19T00:02:33.233Z,11.54
2023-01-19T00:05:00.579Z,11.57
2023-01-19T00:07:27.507Z,11.31
2023-01-19T00:09:54.427Z,11.78
2023-01-19T00:12:21.225Z,11.39
2023-01-19T00:14:48.140Z,11.64
2023-01-19T00:17:15.077Z,11.24
2023-01-19T00:19:41.922Z,10.54
2023-01-19T00:22:08.773Z,10.61
2023-01-19T00:24:35.616Z,10.30
2023-01-19T00:27:04.053Z,10.30
2023-01-19T00:29:33.481Z,10.44
2023-01-19T00:32:00.935Z,10.48
2023-01-19T00:34:27.890Z,10.64
2023-01-19T00:36:54.598Z,10.82
2023-01-19T00:39:21.347Z,10.72
2023-01-19T00:42:07.272Z,10.39
2023-01-19T00:44:34.005Z,10.79
2023-01-19T00:47:01.160Z,11.04
2023-01-19T00:49:28.098Z,11.42
2023-01-19T00:51:54.875Z,10.69
2023-01-19T00:54:21.683Z,10.83
2023-01-19T00:56:48.532Z,10.65
2023-01-19T00:59:15.279Z,10.77
2023-01-19T01:01:45.198Z,10.77
2023-01-19T01:04:14.279Z,10.46
2023-01-19T01:06:41.119Z,10.36
2023-01-19T01:09:12.147Z,10.22
2023-01-19T01:11:40.000Z,11.27
2023-01-19T01:14:07.183Z,10.69
2023-01-19T01:16:34.209Z,10.16
2023-01-19T01:19:00.996Z,9.88
2023-01-19T01:21:27.941Z,9.96
2023-01-19T01:23:54.751Z,10.41
2023-01-19T01:26:21.511Z,9.68
2023-01-19T01:28:48.281Z,9.46
2023-01-19T01:31:15.039Z,9.61
2023-01-19T01:33:42.053Z,10.16
2023-01-19T01:36:10.414Z,10.25
2023-01-19T01:38:38.371Z,10.02
2023-01-19T01:41:05.113Z,10.22
2023-01-19T01:43:45.973Z,10.32
2023-01-19T01:46:15.674Z,10.58
2023-01-19T01:49:04.852Z,10.67
2023-01-19T01:51:44.083Z,10.63
2023-01-19T01:54:17.015Z,11.10
2023-01-19T01:56:48.547Z,11.15
2023-01-19T01:59:39.373Z,11.39
2023-01-19T02:02:26.653Z,11.27
2023-01-19T02:04:55.750Z,11.17
2023-01-19T02:08:02.987Z,11.39
2023-01-19T02:10:48.626Z,11.53
2023-01-19T02:13:21.366Z,11.75
2023-01-19T02:15:50.003Z,11.52
2023-01-19T02:18:16.829Z,11.42
2023-01-19T02:20:48.166Z,11.23
2023-01-19T02:23:19.458Z,11.13
2023-01-19T02:25:46.663Z,11.03
2023-01-19T02:28:13.368Z,10.96
2023-01-19T02:30:40.074Z,11.12
2023-01-19T02:33:07.214Z,10.85
2023-01-19T02:35:34.578Z,10.86
2023-01-19T02:38:01.810Z,10.92
2023-01-19T02:40:28.599Z,10.78
2023-01-19T02:42:56.915Z,10.80
2023-01-19T02:45:23.664Z,10.74
2023-01-19T02:47:51.509Z,10.79
2023-01-19T02:50:46.175Z,10.49
2023-01-19T02:53:31.531Z,10.45
2023-01-19T02:56:20.367Z,10.51
2023-01-19T02:59:12.104Z,10.78
2023-01-19T03:01:48.246Z,10.70
2023-01-19T03:04:23.796Z,10.77
2023-01-19T03:06:54.094Z,10.71
2023-01-19T03:09:41.465Z,10.28
2023-01-19T03:12:17.712Z,9.80
2023-01-19T03:14:46.290Z,10.05
2023-01-19T03:17:13.102Z,9.73
2023-01-19T03:19:41.325Z,9.85
2023-01-19T03:22:15.661Z,10.03
2023-01-19T03:24:43.412Z,10.00
2023-01-19T03:27:32.948Z,10.04
2023-01-19T03:30:11.133Z,9.97
2023-01-19T03:32:41.631Z,9.79
2023-01-19T03:35:11.880Z,9.72
2023-01-19T03:37:41.538Z,9.59
2023-01-19T03:40:09.359Z,9.59
2023-01-19T03:42:37.038Z,9.57
2023-01-19T03:45:04.052Z,9.66
2023-01-19T03:47:30.827Z,9.54
2023-01-19T03:49:58.022Z,9.64
2023-01-19T03:52:33.570Z,9.85
2023-01-19T03:55:01.395Z,9.87
2023-01-19T03:57:28.277Z,9.61
2023-01-19T03:59:55.963Z,9.60
2023-01-19T04:02:23.526Z,9.48
2023-01-19T04:04:50.763Z,9.71
2023-01-19T04:07:17.788Z,9.79
2023-01-19T04:09:44.631Z,9.73
2023-01-19T04:12:11.469Z,9.71
2023-01-19T07:43:57.459Z,4.77
2023-01-19T07:46:45.173Z,6.55
2023-01-19T07:49:22.048Z,7.02
2023-01-19T07:51:49.172Z,7.37
2023-01-19T07:54:16.078Z,7.46
2023-01-19T07:56:42.811Z,7.67
2023-01-19T07:59:09.670Z,7.89
2023-01-19T08:01:38.135Z,7.93
2023-01-19T08:04:05.229Z,7.95
2023-01-19T08:06:38.680Z,8.15
2023-01-19T08:09:07.144Z,8.39
2023-01-19T08:11:36.312Z,8.66
2023-01-19T08:14:08.467Z,8.45
2023-01-19T08:16:36.811Z,8.57
2023-01-19T08:19:03.980Z,8.60
2023-01-19T08:21:32.879Z,8.51
2023-01-19T08:24:00.676Z,8.73
2023-01-19T08:26:32.978Z,8.75
2023-01-19T08:29:02.537Z,8.71
2023-01-19T08:31:29.551Z,8.81
2023-01-19T08:33:56.678Z,8.53
2023-01-19T08:36:24.689Z,8.37
2023-01-19T08:38:52.975Z,8.72
2023-01-19T08:41:20.167Z,8.83
2023-01-19T08:43:47.051Z,8.51
2023-01-19T08:46:16.938Z,8.42
2023-01-19T08:48:44.627Z,8.55
2023-01-19T08:51:12.413Z,8.44
2023-01-19T08:53:42.533Z,8.67
2023-01-19T08:56:12.122Z,8.65
2023-01-19T08:58:40.128Z,8.97
2023-01-19T09:01:08.168Z,8.76
2023-01-19T09:03:36.224Z,8.47
2023-01-19T09:06:07.096Z,8.52
2023-01-19T09:08:33.859Z,8.40
2023-01-19T09:11:01.360Z,9.00
2023-01-19T09:13:29.440Z,9.49
2023-01-19T09:15:58.649Z,9.52
2023-01-19T09:18:27.420Z,9.43
2023-01-19T09:20:57.306Z,9.52
2023-01-19T09:23:25.818Z,9.86
2023-01-19T09:26:02.779Z,9.86
2023-01-19T09:28:29.946Z,9.69
2023-01-19T09:30:57.685Z,9.74
2023-01-19T09:33:28.341Z,9.80
2023-01-19T09:35:56.064Z,9.75
2023-01-19T09:38:25.292Z,9.52
2023-01-19T09:40:54.045Z,9.50
2023-01-19T09:43:42.548Z,9.23
2023-01-19T09:46:19.556Z,9.73
2023-01-19T09:48:58.588Z,9.63
2023-01-19T09:51:31.033Z,10.01
2023-01-19T09:54:15.407Z,10.16
2023-01-19T09:56:44.039Z,10.03
2023-01-19T09:59:19.535Z,10.05
2023-01-19T10:01:52.065Z,10.16
2023-01-19T10:04:39.000Z,10.14
2023-01-19T10:07:52.593Z,10.12
2023-01-19T10:10:54.975Z,9.80
2023-01-19T10:13:27.730Z,9.33
2023-01-19T10:16:18.983Z,9.23
2023-01-19T10:18:47.284Z,9.55
2023-01-19T10:21:19.235Z,9.61
2023-01-19T10:23:56.882Z,9.43
2023-01-19T10:26:27.548Z,9.78
2023-01-19T10:28:58.004Z,9.96
2023-01-19T10:31:25.215Z,9.67
2023-01-19T10:33:53.959Z,9.74
2023-01-19T10:36:31.476Z,9.89
2023-01-19T10:38:58.760Z,9.79
2023-01-19T10:41:46.000Z,9.77
2023-01-19T10:44:38.634Z,10.11
2023-01-19T10:47:06.555Z,10.49
2023-01-19T10:49:42.112Z,10.65
2023-01-19T10:52:31.056Z,10.51
2023-01-19T10:54:59.622Z,10.67
2023-01-19T10:57:37.772Z,10.67
2023-01-19T11:00:37.057Z,10.65
2023-01-19T11:03:32.982Z,10.64
2023-01-19T11:06:26.235Z,10.81
2023-01-19T11:09:20.809Z,10.65
2023-01-19T11:12:23.375Z,10.61
2023-01-19T11:14:57.813Z,10.74
2023-01-19T11:17:27.572Z,10.77
2023-01-19T11:19:59.074Z,10.77
2023-01-19T11:22:36.116Z,10.63
2023-01-19T11:25:05.416Z,11.12
2023-01-19T11:27:34.336Z,10.93
2023-01-19T11:30:18.530Z,11.11
2023-01-19T11:32:48.914Z,11.29
2023-01-19T11:35:39.027Z,11.37
2023-01-19T11:38:07.329Z,11.42
2023-01-19T11:40:34.405Z,11.58
2023-01-19T11:43:01.415Z,11.61
2023-01-19T11:45:28.568Z,11.47
2023-01-19T11:47:56.543Z,11.36
2023-01-19T11:50:31.210Z,11.51
2023-01-19T11:53:11.088Z,11.51
2023-01-19T11:55:56.687Z,11.32
2023-01-19T11:58:25.293Z,11.49
2023-01-19T12:00:52.678Z,11.57
2023-01-19T12:03:22.305Z,11.48
2023-01-19T12:05:51.580Z,11.61
2023-01-19T12:08:30.506Z,11.79
2023-01-19T12:10:58.249Z,11.79
2023-01-19T16:26:10.627Z,11.83
2023-01-19T16:28:37.706Z,12.87
2023-01-19T16:31:04.689Z,12.95
2023-01-19T16:33:31.458Z,13.06
2023-01-19T16:35:58.432Z,13.12
2023-01-19T16:38:25.232Z,13.17
2023-01-19T16:40:52.021Z,13.25
2023-01-19T16:43:18.813Z,13.30
2023-01-19T16:45:59.789Z,13.19
2023-01-19T16:48:26.816Z,13.41
2023-01-19T16:51:01.401Z,13.25
2023-01-19T16:53:28.943Z,13.05
2023-01-19T16:55:55.815Z,13.10
2023-01-19T16:58:22.736Z,13.19
2023-01-19T17:00:49.730Z,13.31
2023-01-19T17:03:16.583Z,13.36
2023-01-19T17:05:48.922Z,13.28
2023-01-19T17:08:15.744Z,13.06
2023-01-19T17:10:43.734Z,12.86
2023-01-19T17:13:10.535Z,12.43
2023-01-19T17:15:39.250Z,12.62
2023-01-19T17:18:06.264Z,12.78
2023-01-19T17:20:34.155Z,12.83
2023-01-19T17:23:01.063Z,12.70
2023-01-19T17:25:27.946Z,12.88
2023-01-19T17:27:54.789Z,12.97
2023-01-19T17:30:21.705Z,12.83
2023-01-19T17:32:48.477Z,12.82
2023-01-19T17:35:15.267Z,12.83
2023-01-19T17:37:42.363Z,12.78
2023-01-19T17:40:10.454Z,12.62
2023-01-19T17:42:41.884Z,12.79
2023-01-19T17:45:11.084Z,12.93
2023-01-19T17:47:38.640Z,12.97
2023-01-19T17:50:06.288Z,13.00
2023-01-19T17:52:33.467Z,12.95
2023-01-19T17:55:00.773Z,12.84
2023-01-19T17:57:27.959Z,12.88
2023-01-19T17:59:54.714Z,12.91
2023-01-19T18:02:24.664Z,13.01
2023-01-19T18:04:53.144Z,12.91
2023-01-19T18:07:20.155Z,12.75
2023-01-19T18:09:46.949Z,12.87
2023-01-19T18:12:13.796Z,12.83
2023-01-19T18:14:41.285Z,12.96
2023-01-19T18:17:08.108Z,13.06
2023-01-19T18:19:34.980Z,13.10
2023-01-19T18:22:02.233Z,13.08
2023-01-19T18:24:29.683Z,13.11
2023-01-19T18:26:56.543Z,13.03
2023-01-19T18:29:23.445Z,12.92
2023-01-19T18:31:50.216Z,13.12
2023-01-19T18:34:17.158Z,13.02
2023-01-19T18:36:44.592Z,13.14
2023-01-19T18:39:11.470Z,13.34
2023-01-19T18:41:42.099Z,13.41
2023-01-19T18:44:12.350Z,13.14
2023-01-19T18:46:39.272Z,13.34
2023-01-19T18:49:06.813Z,13.44
2023-01-19T18:51:33.705Z,13.68
2023-01-19T18:54:00.717Z,13.62
2023-01-19T18:56:27.854Z,13.36
2023-01-19T18:58:55.013Z,13.30
2023-01-19T19:01:25.921Z,13.43
2023-01-19T19:03:53.910Z,13.46
2023-01-19T19:06:21.265Z,13.65
2023-01-19T19:08:49.779Z,13.68
2023-01-19T19:11:17.905Z,13.55
2023-01-19T19:13:44.867Z,13.82
2023-01-19T19:16:12.455Z,13.26
2023-01-19T19:18:39.794Z,13.57
2023-01-19T19:21:12.053Z,13.69
2023-01-19T19:23:38.822Z,13.58
2023-01-19T19:26:09.824Z,13.54
2023-01-19T19:28:37.400Z,13.64
2023-01-19T19:31:09.719Z,13.53
2023-01-19T19:33:36.879Z,13.80
2023-01-19T19:36:04.550Z,13.72
2023-01-19T19:38:31.335Z,13.60
2023-01-19T19:40:58.979Z,13.54
2023-01-19T19:43:26.599Z,13.61
2023-01-19T19:46:02.573Z,13.47
2023-01-19T19:48:29.594Z,13.29
2023-01-19T19:51:17.161Z,13.36
2023-01-19T19:53:45.140Z,13.22
2023-01-19T19:56:13.315Z,13.25
2023-01-19T19:58:41.829Z,13.30
2023-01-19T20:01:22.030Z,13.45
2023-01-19T20:03:49.514Z,13.05
2023-01-19T20:06:20.258Z,12.77
2023-01-19T22:22:36.383Z,10.99
2023-01-19T22:25:04.419Z,12.14
2023-01-19T22:27:32.949Z,12.23
2023-01-19T22:29:59.672Z,12.19
2023-01-19T22:32:26.529Z,12.41
2023-01-19T22:34:53.138Z,12.36
2023-01-19T22:37:19.779Z,12.30
2023-01-19T22:39:46.245Z,12.30
2023-01-19T22:42:12.888Z,12.44
2023-01-19T22:44:39.629Z,12.50
2023-01-19T22:47:06.188Z,12.59
2023-01-19T22:49:33.003Z,12.71
2023-01-19T22:51:59.735Z,12.64
2023-01-19T22:54:26.311Z,12.60
2023-01-19T22:56:52.916Z,12.92
2023-01-19T22:59:19.460Z,13.35
2023-01-19T23:01:48.472Z,13.23
2023-01-19T23:04:15.489Z,13.10
2023-01-19T23:06:42.227Z,13.15
2023-01-19T23:09:10.952Z,12.76
2023-01-19T23:11:39.188Z,12.56
2023-01-19T23:14:07.096Z,13.07
2023-01-19T23:16:34.057Z,13.18
2023-01-19T23:19:00.692Z,13.02
2023-01-19T23:21:28.622Z,13.42
2023-01-19T23:23:56.184Z,13.58
2023-01-19T23:26:22.921Z,12.95
2023-01-19T23:28:57.069Z,13.28
2023-01-19T23:31:31.321Z,13.29
2023-01-19T23:34:08.139Z,13.29
2023-01-19T23:36:35.937Z,13.53
2023-01-19T23:39:15.651Z,13.62
2023-01-19T23:41:42.277Z,13.93
2023-01-19T23:44:09.208Z,14.14
2023-01-19T23:46:35.808Z,13.84
2023-01-19T23:49:02.491Z,13.24
2023-01-19T23:51:30.172Z,13.27
2023-01-19T23:53:57.622Z,13.31
2023-01-19T23:56:26.172Z,13.73
2023-01-19T23:58:57.656Z,13.84
